Time,TemperatureF,DewpointF,PressureIn,WindDirection,WindDirectionDegrees,WindSpeedMPH,WindSpeedGustMPH,Humidity,HourlyPrecipIn,Conditions,Clouds,dailyrainin,SolarRadiationWatts/m^2,SoftwareType,DateUTC
2013-05-15 00:00:00,41.0,41.0,-100.00,SSW,209,9.0,14.0,99,0.00,,,0.01,0.000000,,2013-05-15 07:00:00,
2013-05-15 00:22:00,41.0,41.0,-100.00,SSW,209,9.0,14.0,99,0.00,,,0.01,0.000000,,2013-05-15 07:22:00,
2013-05-15 00:32:00,41.0,41.0,-100.00,SSW,209,9.0,14.0,99,0.00,,,0.01,0.000000,,2013-05-15 07:32:00,
2013-05-15 00:42:00,41.0,41.0,-100.00,SSW,209,9.0,14.0,99,0.00,,,0.01,0.000000,,2013-05-15 07:42:00,
2013-05-15 00:52:00,41.0,41.0,-100.00,SSW,209,9.0,14.0,99,0.00,,,0.01,0.000000,,2013-05-15 07:52:00,
2013-05-15 01:00:00,41.0,39.0,-100.00,SSW,209,9.0,13.0,92,0.00,,,0.01,0.000000,,2013-05-15 08:00:00,
2013-05-15 01:21:00,41.0,39.0,-100.00,SSW,209,9.0,13.0,92,0.00,,,0.01,0.000000,,2013-05-15 08:21:00,
2013-05-15 01:32:00,41.0,39.0,-100.00,SSW,209,9.0,13.0,92,0.00,,,0.01,0.000000,,2013-05-15 08:32:00,
2013-05-15 01:42:00,41.0,39.0,-100.00,SSW,209,9.0,13.0,92,0.00,,,0.01,0.000000,,2013-05-15 08:42:00,
2013-05-15 01:53:00,41.0,39.0,-100.00,SSW,209,9.0,13.0,92,0.00,,,0.01,0.000000,,2013-05-15 08:53:00,
2013-05-15 02:00:00,41.0,41.0,-100.00,SSW,209,9.0,14.0,99,0.00,,,0.01,0.000000,,2013-05-15 09:00:00,
2013-05-15 02:22:00,41.0,41.0,-100.00,SSW,209,9.0,14.0,99,0.00,,,0.01,0.000000,,2013-05-15 09:22:00,
2013-05-15 02:33:00,41.0,41.0,-100.00,SSW,209,9.0,14.0,99,0.00,,,0.01,0.000000,,2013-05-15 09:33:00,
2013-05-15 02:42:00,41.0,41.0,-100.00,SSW,209,9.0,14.0,99,0.00,,,0.01,0.000000,,2013-05-15 09:42:00,
2013-05-15 02:53:00,41.0,41.0,-100.00,SSW,209,9.0,14.0,99,0.00,,,0.01,0.000000,,2013-05-15 09:53:00,
2013-05-15 03:00:00,41.0,41.0,-100.00,SSW,206,8.0,14.0,100,0.00,,,0.01,0.000000,,2013-05-15 10:00:00,
2013-05-15 03:32:00,41.0,41.0,-100.00,SSW,206,8.0,14.0,100,0.00,,,0.01,0.000000,,2013-05-15 10:32:00,
2013-05-15 03:42:00,41.0,41.0,-100.00,SSW,206,8.0,14.0,100,0.00,,,0.01,0.000000,,2013-05-15 10:42:00,
2013-05-15 03:52:00,41.0,41.0,-100.00,SSW,206,8.0,14.0,100,0.00,,,0.01,0.000000,,2013-05-15 10:52:00,
2013-05-15 04:00:00,39.0,39.0,-100.00,SSW,205,7.0,11.0,100,0.01,,,-99.99,0.000000,,2013-05-15 11:00:00,
2013-05-15 04:28:00,39.0,39.0,-100.00,SSW,205,7.0,11.0,100,0.01,,,-99.99,0.000000,,2013-05-15 11:28:00,
2013-05-15 04:38:00,39.0,39.0,-100.00,SSW,205,7.0,11.0,100,0.01,,,-99.99,0.000000,,2013-05-15 11:38:00,
2013-05-15 04:57:00,39.0,39.0,-100.00,SSW,205,7.0,11.0,100,0.01,,,-99.99,0.000000,,2013-05-15 11:57:00,
2013-05-15 05:00:00,41.0,40.0,-100.00,South,184,6.0,11.0,96,0.00,,,0.02,0.000000,,2013-05-15 12:00:00,
2013-05-15 05:37:00,41.0,40.0,-100.00,South,184,6.0,11.0,96,0.00,,,0.02,0.000000,,2013-05-15 12:37:00,
2013-05-15 05:56:00,41.0,40.0,-100.00,South,184,6.0,11.0,96,0.00,,,0.02,0.000000,,2013-05-15 12:56:00,
2013-05-15 06:00:00,40.0,40.0,-100.00,East,99,4.0,11.0,99,0.00,,,0.02,0.000000,,2013-05-15 13:00:00,
2013-05-15 06:57:00,40.0,40.0,-100.00,East,99,4.0,11.0,99,0.00,,,0.02,0.000000,,2013-05-15 13:57:00,
2013-05-15 07:00:00,40.0,40.0,-100.00,ENE,76,5.0,11.0,100,0.00,,,0.02,36.000000,,2013-05-15 14:00:00,
2013-05-15 07:28:00,40.0,40.0,-100.00,ENE,76,5.0,11.0,100,0.00,,,0.02,36.000000,,2013-05-15 14:28:00,
2013-05-15 07:39:00,40.0,40.0,-100.00,ENE,76,5.0,11.0,100,0.00,,,0.02,36.000000,,2013-05-15 14:39:00,
2013-05-15 08:00:00,41.0,41.0,-100.00,ENE,72,3.0,10.0,100,0.00,,,0.02,81.000000,,2013-05-15 15:00:00,
2013-05-15 08:29:00,41.0,41.0,-100.00,ENE,72,3.0,10.0,100,0.00,,,0.02,81.000000,,2013-05-15 15:29:00,
2013-05-15 08:48:00,41.0,41.0,-100.00,ENE,72,3.0,10.0,100,0.00,,,0.02,81.000000,,2013-05-15 15:48:00,
2013-05-15 08:57:00,41.0,41.0,-100.00,ENE,72,3.0,10.0,100,0.00,,,0.02,81.000000,,2013-05-15 15:57:00,
2013-05-15 09:00:00,43.0,42.0,-100.00,ENE,70,7.0,11.0,98,0.00,,,0.02,209.000000,,2013-05-15 16:00:00,
2013-05-15 09:39:00,43.0,42.0,-100.00,ENE,70,7.0,11.0,98,0.00,,,0.02,209.000000,,2013-05-15 16:39:00,
2013-05-15 09:49:00,43.0,42.0,-100.00,ENE,70,7.0,11.0,98,0.00,,,0.02,209.000000,,2013-05-15 16:49:00,
2013-05-15 09:56:00,43.0,42.0,-100.00,ENE,70,7.0,11.0,98,0.00,,,0.02,209.000000,,2013-05-15 16:56:00,
2013-05-15 11:28:00,52.0,43.0,-100.00,SSE,165,1.0,6.0,71,-99.99,,,0.03,419.000000,,2013-05-15 18:28:00,
2013-05-15 11:38:00,52.0,43.0,-100.00,SSE,165,1.0,6.0,71,-99.99,,,0.03,419.000000,,2013-05-15 18:38:00,
2013-05-15 11:47:00,52.0,43.0,-100.00,SSE,165,1.0,6.0,71,-99.99,,,0.03,419.000000,,2013-05-15 18:47:00,
2013-05-15 11:55:00,52.0,43.0,-100.00,SSE,165,1.0,6.0,71,-99.99,,,0.03,419.000000,,2013-05-15 18:55:00,
2013-05-15 12:00:00,52.0,45.0,-100.00,SSW,198,1.0,7.0,76,0.00,,,0.03,498.000000,,2013-05-15 19:00:00,
2013-05-15 12:39:00,52.0,45.0,-100.00,SSW,198,1.0,7.0,76,0.00,,,0.03,498.000000,,2013-05-15 19:39:00,
2013-05-15 12:56:00,52.0,45.0,-100.00,SSW,198,1.0,7.0,76,0.00,,,0.03,498.000000,,2013-05-15 19:56:00,
2013-05-15 13:00:00,52.0,46.0,-100.00,SSW,206,1.0,7.0,81,0.00,,,0.02,611.000000,,2013-05-15 20:00:00,
2013-05-15 13:40:00,52.0,46.0,-100.00,SSW,206,1.0,7.0,81,0.00,,,0.02,611.000000,,2013-05-15 20:40:00,
2013-05-15 13:47:00,52.0,46.0,-100.00,SSW,206,1.0,7.0,81,0.00,,,0.02,611.000000,,2013-05-15 20:47:00,
2013-05-15 13:54:00,52.0,46.0,-100.00,SSW,206,1.0,7.0,81,0.00,,,0.02,611.000000,,2013-05-15 20:54:00,
2013-05-15 14:00:00,49.0,47.0,-100.00,SSW,206,3.0,8.0,92,0.00,,,0.02,368.000000,,2013-05-15 21:00:00,
2013-05-15 14:41:00,49.0,47.0,-100.00,SSW,206,3.0,8.0,92,0.00,,,0.02,368.000000,,2013-05-15 21:41:00,
2013-05-15 14:51:00,49.0,47.0,-100.00,SSW,206,3.0,8.0,92,0.00,,,0.02,368.000000,,2013-05-15 21:51:00,
2013-05-15 14:58:00,49.0,47.0,-100.00,SSW,206,3.0,8.0,92,0.00,,,0.02,368.000000,,2013-05-15 21:58:00,
2013-05-15 15:00:00,48.0,47.0,-100.00,WSW,238,0.0,7.0,95,0.01,,,0.03,169.000000,,2013-05-15 22:00:00,
2013-05-15 16:00:00,49.0,49.0,-100.00,East,90,0.0,5.0,99,0.01,,,0.04,135.000000,,2013-05-15 23:00:00,
2013-05-15 16:39:00,49.0,49.0,-100.00,East,90,0.0,5.0,99,0.01,,,0.04,135.000000,,2013-05-15 23:39:00,
2013-05-15 16:50:00,49.0,49.0,-100.00,East,90,0.0,5.0,99,0.01,,,0.04,135.000000,,2013-05-15 23:50:00,
2013-05-15 16:57:00,49.0,49.0,-100.00,East,90,0.0,5.0,99,0.01,,,0.04,135.000000,,2013-05-15 23:57:00,
2013-05-15 17:00:00,50.0,47.0,-100.00,ENE,64,2.0,6.0,90,0.01,,,0.05,421.000000,,2013-05-16 00:00:00,
2013-05-15 17:37:00,50.0,47.0,-100.00,ENE,64,2.0,6.0,90,0.01,,,0.05,421.000000,,2013-05-16 00:37:00,
2013-05-15 17:51:00,50.0,47.0,-100.00,ENE,64,2.0,6.0,90,0.01,,,0.05,421.000000,,2013-05-16 00:51:00,
2013-05-15 18:00:00,46.0,46.0,-100.00,NE,54,1.0,7.0,100,0.00,,,0.05,169.000000,,2013-05-16 01:00:00,
2013-05-15 18:49:00,46.0,46.0,-100.00,NE,54,1.0,7.0,100,0.00,,,0.05,169.000000,,2013-05-16 01:49:00,
2013-05-15 18:57:00,46.0,46.0,-100.00,NE,54,1.0,7.0,100,0.00,,,0.05,169.000000,,2013-05-16 01:57:00,
2013-05-15 19:00:00,47.0,47.0,-100.00,ENE,57,3.0,6.0,100,0.01,,,0.06,156.000000,,2013-05-16 02:00:00,
2013-05-15 19:28:00,47.0,47.0,-100.00,ENE,57,3.0,6.0,100,0.01,,,0.06,156.000000,,2013-05-16 02:28:00,
2013-05-15 19:40:00,47.0,47.0,-100.00,ENE,57,3.0,6.0,100,0.01,,,0.06,156.000000,,2013-05-16 02:40:00,
2013-05-15 19:47:00,47.0,47.0,-100.00,ENE,57,3.0,6.0,100,0.01,,,0.06,156.000000,,2013-05-16 02:47:00,
2013-05-15 19:54:00,47.0,47.0,-100.00,ENE,57,3.0,6.0,100,0.01,,,0.06,156.000000,,2013-05-16 02:54:00,
2013-05-15 20:00:00,47.0,47.0,-100.00,South,189,0.0,4.0,100,0.00,,,0.06,36.000000,,2013-05-16 03:00:00,
2013-05-15 20:46:00,47.0,47.0,-100.00,South,189,0.0,4.0,100,0.00,,,0.06,36.000000,,2013-05-16 03:46:00,
2013-05-15 20:56:00,47.0,47.0,-100.00,South,189,0.0,4.0,100,0.00,,,0.06,36.000000,,2013-05-16 03:56:00,
2013-05-15 21:00:00,46.0,46.0,-100.00,SSE,154,1.0,7.0,100,0.01,,,0.07,13.000000,,2013-05-16 04:00:00,
2013-05-15 21:23:00,46.0,46.0,-100.00,SSE,154,1.0,7.0,100,0.01,,,0.07,13.000000,,2013-05-16 04:23:00,
2013-05-15 21:33:00,46.0,46.0,-100.00,SSE,154,1.0,7.0,100,0.01,,,0.07,13.000000,,2013-05-16 04:33:00,
2013-05-15 21:42:00,46.0,46.0,-100.00,SSE,154,1.0,7.0,100,0.01,,,0.07,13.000000,,2013-05-16 04:42:00,
2013-05-15 21:53:00,46.0,46.0,-100.00,SSE,154,1.0,7.0,100,0.01,,,0.07,13.000000,,2013-05-16 04:53:00,
2013-05-15 22:00:00,44.0,44.0,-100.00,East,99,3.0,7.0,100,0.01,,,0.08,0.000000,,2013-05-16 05:00:00,
2013-05-15 22:22:00,44.0,44.0,-100.00,East,99,3.0,7.0,100,0.01,,,0.08,0.000000,,2013-05-16 05:22:00,
2013-05-15 22:32:00,44.0,44.0,-100.00,East,99,3.0,7.0,100,0.01,,,0.08,0.000000,,2013-05-16 05:32:00,
2013-05-15 22:42:00,44.0,44.0,-100.00,East,99,3.0,7.0,100,0.01,,,0.08,0.000000,,2013-05-16 05:42:00,
2013-05-15 22:52:00,44.0,44.0,-100.00,East,99,3.0,7.0,100,0.01,,,0.08,0.000000,,2013-05-16 05:52:00,
2013-05-15 23:00:00,45.0,45.0,-100.00,ENE,69,6.0,11.0,100,0.01,,,0.09,0.000000,,2013-05-16 06:00:00,
2013-05-15 23:23:00,45.0,45.0,-100.00,ENE,69,6.0,11.0,100,0.01,,,0.09,0.000000,,2013-05-16 06:23:00,
2013-05-15 23:33:00,45.0,45.0,-100.00,ENE,69,6.0,11.0,100,0.01,,,0.09,0.000000,,2013-05-16 06:33:00,
2013-05-15 23:43:00,45.0,45.0,-100.00,ENE,69,6.0,11.0,100,0.01,,,0.09,0.000000,,2013-05-16 06:43:00,
2013-05-15 23:53:00,45.0,45.0,-100.00,ENE,69,6.0,11.0,100,0.01,,,0.09,0.000000,,2013-05-16 06:53:00,